createdAt,value
2022-09-24T00:02:02.000Z,98358
2022-09-24T00:03:28.000Z,98360
2022-09-24T00:05:34.000Z,98358
2022-09-24T00:07:01.000Z,98356
2022-09-24T00:09:07.000Z,98352
2022-09-24T00:10:34.000Z,98354
2022-09-24T00:12:40.000Z,98348
2022-09-24T00:14:06.000Z,98354
2022-09-24T00:16:12.000Z,98348
2022-09-24T00:17:39.000Z,98349
2022-09-24T00:19:45.000Z,98349
2022-09-24T00:21:12.000Z,98353
2022-09-24T00:23:18.000Z,98352
2022-09-24T00:26:09.000Z,98351
2022-09-24T00:27:36.000Z,98347
2022-09-24T00:29:42.000Z,98350
2022-09-24T00:31:08.000Z,98352
2022-09-24T00:33:14.000Z,98349
2022-09-24T00:34:41.000Z,98346
2022-09-24T00:36:47.000Z,98342
2022-09-24T00:38:14.000Z,98339
2022-09-24T00:40:20.000Z,98340
2022-09-24T00:41:47.000Z,98339
2022-09-24T00:43:53.000Z,98336
2022-09-24T00:45:19.000Z,98336
2022-09-24T00:47:25.000Z,98334
2022-09-24T00:48:52.000Z,98337
2022-09-24T00:50:58.000Z,98334
2022-09-24T00:52:25.000Z,98334
2022-09-24T00:54:31.000Z,98331
2022-09-24T00:55:57.000Z,98331
2022-09-24T00:58:03.000Z,98335
2022-09-24T00:59:30.000Z,98331
2022-09-24T01:01:36.000Z,98330
2022-09-24T01:04:27.000Z,98322
2022-09-24T01:05:54.000Z,98321
2022-09-24T01:08:00.000Z,98321
2022-09-24T01:09:26.000Z,98323
2022-09-24T01:11:32.000Z,98321
2022-09-24T01:12:59.000Z,98313
2022-09-24T01:15:05.000Z,98317
2022-09-24T01:16:32.000Z,98313
2022-09-24T01:18:38.000Z,98310
2022-09-24T01:20:04.000Z,98314
2022-09-24T01:22:10.000Z,98316
2022-09-24T01:23:37.000Z,98316
2022-09-24T01:25:43.000Z,98315
2022-09-24T01:27:09.000Z,98315
2022-09-24T01:29:16.000Z,98310
2022-09-24T01:30:42.000Z,98310
2022-09-24T01:32:48.000Z,98307
2022-09-24T01:34:15.000Z,98308
2022-09-24T01:36:21.000Z,98305
2022-09-24T01:37:47.000Z,98302
2022-09-24T01:39:53.000Z,98303
2022-09-24T01:42:44.000Z,98298
2022-09-24T01:44:11.000Z,98299
2022-09-24T01:46:17.000Z,98295
2022-09-24T01:47:44.000Z,98296
2022-09-24T01:49:50.000Z,98295
2022-09-24T01:51:16.000Z,98296
2022-09-24T01:53:22.000Z,98291
2022-09-24T01:54:49.000Z,98292
2022-09-24T01:56:55.000Z,98287
2022-09-24T01:58:22.000Z,98281
2022-09-24T02:00:28.000Z,98273
2022-09-24T02:01:54.000Z,98272
2022-09-24T02:04:01.000Z,98266
2022-09-24T02:05:27.000Z,98264
2022-09-24T02:07:33.000Z,98261
2022-09-24T02:09:00.000Z,98262
2022-09-24T02:11:06.000Z,98255
2022-09-24T02:12:32.000Z,98255
2022-09-24T02:14:39.000Z,98252
2022-09-24T02:16:05.000Z,98251
2022-09-24T02:18:11.000Z,98245
2022-09-24T02:21:03.000Z,98243
2022-09-24T02:22:29.000Z,98244
2022-09-24T02:24:35.000Z,98244
2022-09-24T02:26:02.000Z,98243
2022-09-24T02:28:08.000Z,98243
2022-09-24T02:29:34.000Z,98242
2022-09-24T02:31:40.000Z,98242
2022-09-24T02:33:07.000Z,98241
2022-09-24T02:35:13.000Z,98240
2022-09-24T02:36:40.000Z,98238
2022-09-24T02:38:46.000Z,98238
2022-09-24T02:40:12.000Z,98237
2022-09-24T02:42:19.000Z,98238
2022-09-24T02:43:45.000Z,98235
2022-09-24T02:45:51.000Z,98237
2022-09-24T02:47:18.000Z,98239
2022-09-24T02:49:24.000Z,98238
2022-09-24T02:50:50.000Z,98237
2022-09-24T02:52:56.000Z,98237
2022-09-24T02:54:23.000Z,98237
2022-09-24T02:56:29.000Z,98237
2022-09-24T02:59:20.000Z,98237
2022-09-24T03:00:47.000Z,98234
2022-09-24T03:02:53.000Z,98232
2022-09-24T03:04:20.000Z,98236
2022-09-24T03:06:26.000Z,98234
2022-09-24T03:07:52.000Z,98236
2022-09-24T03:09:58.000Z,98239
2022-09-24T03:11:25.000Z,98238
2022-09-24T03:13:31.000Z,98236
2022-09-24T03:14:57.000Z,98234
2022-09-24T03:17:03.000Z,98230
2022-09-24T03:18:30.000Z,98230
2022-09-24T03:20:36.000Z,98233
2022-09-24T03:22:03.000Z,98230
2022-09-24T03:24:09.000Z,98226
2022-09-24T03:25:35.000Z,98222
2022-09-24T03:27:42.000Z,98223
2022-09-24T03:29:08.000Z,98223
2022-09-24T03:31:14.000Z,98222
2022-09-24T03:32:41.000Z,98225
2022-09-24T03:34:47.000Z,98230
2022-09-24T03:37:38.000Z,98234
2022-09-24T03:39:05.000Z,98233
2022-09-24T03:41:11.000Z,98225
2022-09-24T03:42:37.000Z,98223
2022-09-24T03:44:44.000Z,98226
2022-09-24T03:46:10.000Z,98229
2022-09-24T03:48:17.000Z,98234
2022-09-24T03:49:43.000Z,98231
2022-09-24T03:51:49.000Z,98227
2022-09-24T03:53:16.000Z,98230
2022-09-24T03:55:22.000Z,98234
2022-09-24T03:56:48.000Z,98235
2022-09-24T03:58:54.000Z,98240
2022-09-24T04:00:21.000Z,98241
2022-09-24T04:02:27.000Z,98238
2022-09-24T04:03:54.000Z,98242
2022-09-24T04:06:00.000Z,98242
2022-09-24T04:07:26.000Z,98244
2022-09-24T04:09:33.000Z,98240
2022-09-24T04:10:59.000Z,98240
2022-09-24T04:13:05.000Z,98235
2022-09-24T04:15:56.000Z,98235
2022-09-24T04:17:23.000Z,98236
2022-09-24T04:19:29.000Z,98236
2022-09-24T04:20:56.000Z,98234
2022-09-24T04:23:02.000Z,98237
2022-09-24T04:24:28.000Z,98234
2022-09-24T04:26:35.000Z,98233
2022-09-24T04:28:01.000Z,98234
2022-09-24T04:30:07.000Z,98231
2022-09-24T04:31:34.000Z,98232
2022-09-24T04:33:40.000Z,98233
2022-09-24T04:35:06.000Z,98230
2022-09-24T04:37:13.000Z,98231
2022-09-24T04:38:40.000Z,98230
2022-09-24T04:40:46.000Z,98230
2022-09-24T04:42:13.000Z,98234
2022-09-24T04:44:19.000Z,98231
2022-09-24T04:45:45.000Z,98230
2022-09-24T04:47:51.000Z,98229
2022-09-24T04:49:18.000Z,98227
2022-09-24T04:51:24.000Z,98223
2022-09-24T04:54:15.000Z,98212
2022-09-24T04:55:42.000Z,98212
2022-09-24T04:57:48.000Z,98213
2022-09-24T04:59:14.000Z,98214
2022-09-24T05:01:20.000Z,98211
2022-09-24T05:02:47.000Z,98209
2022-09-24T05:04:53.000Z,98212
2022-09-24T05:06:20.000Z,98210
2022-09-24T05:08:26.000Z,98211
2022-09-24T05:09:52.000Z,98210
2022-09-24T05:11:58.000Z,98210
2022-09-24T05:13:25.000Z,98210
2022-09-24T05:15:31.000Z,98210
2022-09-24T05:16:57.000Z,98211
2022-09-24T05:19:04.000Z,98207
2022-09-24T05:20:30.000Z,98208
2022-09-24T05:22:36.000Z,98206
2022-09-24T05:24:03.000Z,98212
2022-09-24T05:26:09.000Z,98208
2022-09-24T05:27:35.000Z,98207
2022-09-24T05:29:42.000Z,98207
2022-09-24T05:32:33.000Z,98203
2022-09-24T05:33:59.000Z,98203
2022-09-24T05:36:05.000Z,98208
2022-09-24T05:37:32.000Z,98207
2022-09-24T05:39:38.000Z,98210
2022-09-24T05:41:04.000Z,98208
2022-09-24T05:43:11.000Z,98206
2022-09-24T05:44:37.000Z,98204
2022-09-24T05:46:43.000Z,98207
2022-09-24T05:48:10.000Z,98211
2022-09-24T05:50:16.000Z,98215
2022-09-24T05:51:43.000Z,98219
2022-09-24T05:53:49.000Z,98220
2022-09-24T05:55:15.000Z,98220
2022-09-24T05:57:21.000Z,98226
2022-09-24T05:58:48.000Z,98226
2022-09-24T06:00:54.000Z,98228
2022-09-24T06:02:20.000Z,98231
2022-09-24T06:04:27.000Z,98231
2022-09-24T06:05:53.000Z,98231
2022-09-24T06:07:59.000Z,98233
2022-09-24T06:10:50.000Z,98233
2022-09-24T06:12:17.000Z,98233
2022-09-24T06:14:23.000Z,98234
2022-09-24T06:15:49.000Z,98232
2022-09-24T06:17:56.000Z,98229
2022-09-24T06:19:22.000Z,98234
2022-09-24T06:21:28.000Z,98238
2022-09-24T06:22:55.000Z,98238
2022-09-24T06:25:01.000Z,98242
2022-09-24T06:26:27.000Z,98243
2022-09-24T06:28:33.000Z,98245
2022-09-24T06:30:00.000Z,98245
2022-09-24T06:32:06.000Z,98246
2022-09-24T06:33:32.000Z,98247
2022-09-24T06:35:39.000Z,98253
2022-09-24T06:37:05.000Z,98252
2022-09-24T06:39:11.000Z,98256
2022-09-24T06:40:38.000Z,98253
2022-09-24T06:42:44.000Z,98253
2022-09-24T06:44:11.000Z,98250
2022-09-24T06:46:17.000Z,98247
2022-09-24T06:49:08.000Z,98252
2022-09-24T06:50:35.000Z,98248
2022-09-24T06:52:41.000Z,98251
2022-09-24T06:54:07.000Z,98255
2022-09-24T06:56:13.000Z,98257
2022-09-24T06:57:40.000Z,98255
2022-09-24T06:59:46.000Z,98254
2022-09-24T07:01:12.000Z,98252
2022-09-24T07:03:19.000Z,98252
2022-09-24T07:04:45.000Z,98251
2022-09-24T07:06:51.000Z,98246
2022-09-24T07:08:18.000Z,98247
2022-09-24T07:10:24.000Z,98246
2022-09-24T07:11:50.000Z,98245
2022-09-24T07:13:56.000Z,98241
2022-09-24T07:15:23.000Z,98243
2022-09-24T07:17:29.000Z,98245
2022-09-24T07:19:00.000Z,98250
2022-09-24T07:21:06.000Z,98251
2022-09-24T07:22:32.000Z,98252
2022-09-24T07:24:39.000Z,98250
2022-09-24T07:27:30.000Z,98245
2022-09-24T07:28:56.000Z,98252
2022-09-24T07:31:02.000Z,98252
2022-09-24T07:32:29.000Z,98250
2022-09-24T07:34:36.000Z,98250
2022-09-24T07:36:02.000Z,98245
2022-09-24T07:38:08.000Z,98246
2022-09-24T07:39:35.000Z,98243
2022-09-24T07:41:41.000Z,98248
2022-09-24T07:43:08.000Z,98247
2022-09-24T07:45:14.000Z,98250
2022-09-24T07:46:41.000Z,98250
2022-09-24T07:48:47.000Z,98249
2022-09-24T07:50:14.000Z,98248
2022-09-24T07:52:20.000Z,98244
2022-09-24T07:53:46.000Z,98243
2022-09-24T07:55:52.000Z,98245
2022-09-24T07:57:19.000Z,98248
2022-09-24T07:59:25.000Z,98249
2022-09-24T08:00:52.000Z,98249
2022-09-24T08:02:58.000Z,98245
2022-09-24T08:05:49.000Z,98246
2022-09-24T08:07:15.000Z,98244
2022-09-24T08:09:21.000Z,98244
2022-09-24T08:10:48.000Z,98243
2022-09-24T08:12:54.000Z,98244
2022-09-24T08:14:20.000Z,98248
2022-09-24T08:16:27.000Z,98254
2022-09-24T08:17:53.000Z,98250
2022-09-24T08:19:59.000Z,98251
2022-09-24T08:21:26.000Z,98251
2022-09-24T08:23:32.000Z,98248
2022-09-24T08:24:59.000Z,98244
2022-09-24T08:27:05.000Z,98246
2022-09-24T08:28:31.000Z,98244
2022-09-24T08:30:37.000Z,98243
2022-09-24T08:32:04.000Z,98244
2022-09-24T08:34:10.000Z,98248
2022-09-24T08:35:36.000Z,98248
2022-09-24T08:37:43.000Z,98251
2022-09-24T08:39:09.000Z,98254
2022-09-24T08:41:15.000Z,98257
2022-09-24T08:44:07.000Z,98255
2022-09-24T08:45:33.000Z,98251
2022-09-24T08:47:39.000Z,98247
2022-09-24T08:49:06.000Z,98245
2022-09-24T08:51:12.000Z,98249
2022-09-24T08:52:39.000Z,98246
2022-09-24T08:54:45.000Z,98246
2022-09-24T08:56:11.000Z,98253
2022-09-24T08:58:17.000Z,98252
2022-09-24T08:59:44.000Z,98250
2022-09-24T09:01:50.000Z,98245
2022-09-24T09:03:17.000Z,98246
2022-09-24T09:05:23.000Z,98242
2022-09-24T09:06:49.000Z,98242
2022-09-24T09:08:56.000Z,98247
2022-09-24T09:10:34.000Z,98244
2022-09-24T09:12:40.000Z,98247
2022-09-24T09:14:06.000Z,98247
2022-09-24T09:16:12.000Z,98244
2022-09-24T09:17:39.000Z,98247
2022-09-24T09:19:45.000Z,98241
2022-09-24T09:22:42.000Z,98238
2022-09-24T09:24:09.000Z,98238
2022-09-24T09:26:15.000Z,98238
2022-09-24T09:27:42.000Z,98237
2022-09-24T09:29:48.000Z,98237
2022-09-24T09:31:14.000Z,98240
2022-09-24T09:33:20.000Z,98241
2022-09-24T09:34:47.000Z,98241
2022-09-24T09:36:53.000Z,98241
2022-09-24T09:38:19.000Z,98242
2022-09-24T09:40:26.000Z,98239
2022-09-24T09:41:58.000Z,98242
2022-09-24T09:44:04.000Z,98236
2022-09-24T09:45:30.000Z,98235
2022-09-24T09:47:36.000Z,98232
2022-09-24T09:49:03.000Z,98234
2022-09-24T09:51:09.000Z,98230
2022-09-24T09:52:35.000Z,98230
2022-09-24T09:54:42.000Z,98230
2022-09-24T09:56:08.000Z,98229
2022-09-24T09:58:14.000Z,98226
2022-09-24T10:01:05.000Z,98224
2022-09-24T10:02:32.000Z,98222
2022-09-24T10:04:38.000Z,98225
2022-09-24T10:06:05.000Z,98227
2022-09-24T10:08:11.000Z,98225
2022-09-24T10:09:37.000Z,98227
2022-09-24T10:11:43.000Z,98227
2022-09-24T10:13:10.000Z,98226
2022-09-24T10:15:16.000Z,98223
2022-09-24T10:16:42.000Z,98224
2022-09-24T10:18:49.000Z,98219
2022-09-24T10:20:15.000Z,98223
2022-09-24T10:22:21.000Z,98223
2022-09-24T10:23:48.000Z,98222
2022-09-24T10:25:54.000Z,98225
2022-09-24T10:27:20.000Z,98225
2022-09-24T10:29:27.000Z,98225
2022-09-24T10:30:53.000Z,98227
2022-09-24T10:32:59.000Z,98222
2022-09-24T10:34:26.000Z,98222
2022-09-24T10:36:32.000Z,98221
2022-09-24T10:39:23.000Z,98219
2022-09-24T10:40:49.000Z,98224
2022-09-24T10:42:56.000Z,98227
2022-09-24T10:44:22.000Z,98227
2022-09-24T10:46:28.000Z,98226
2022-09-24T10:47:55.000Z,98231
2022-09-24T10:50:01.000Z,98224
2022-09-24T10:51:27.000Z,98224
2022-09-24T10:53:35.000Z,98223
2022-09-24T10:55:02.000Z,98221
2022-09-24T10:57:08.000Z,98218
2022-09-24T10:58:34.000Z,98219
2022-09-24T11:00:40.000Z,98217
2022-09-24T11:02:07.000Z,98216
2022-09-24T11:04:13.000Z,98217
2022-09-24T11:05:40.000Z,98215
2022-09-24T11:07:46.000Z,98211
2022-09-24T11:09:12.000Z,98209
2022-09-24T11:11:18.000Z,98207
2022-09-24T11:12:45.000Z,98209
2022-09-24T11:14:51.000Z,98206
2022-09-24T11:17:42.000Z,98206
2022-09-24T11:19:08.000Z,98202
2022-09-24T11:21:15.000Z,98203
2022-09-24T11:22:41.000Z,98199
2022-09-24T11:24:47.000Z,98204
2022-09-24T11:26:14.000Z,98202
2022-09-24T11:28:20.000Z,98203
2022-09-24T11:29:46.000Z,98205
2022-09-24T11:31:52.000Z,98201
2022-09-24T11:33:19.000Z,98199
2022-09-24T11:35:29.000Z,98202
2022-09-24T11:36:56.000Z,98202
2022-09-24T11:39:02.000Z,98203
2022-09-24T11:40:28.000Z,98204
2022-09-24T11:42:35.000Z,98206
2022-09-24T11:44:01.000Z,98203
2022-09-24T11:46:07.000Z,98204
2022-09-24T11:47:34.000Z,98202
2022-09-24T11:49:40.000Z,98201
2022-09-24T11:51:06.000Z,98196
2022-09-24T11:53:13.000Z,98195
2022-09-24T11:56:04.000Z,98194
2022-09-24T11:57:37.000Z,98191
2022-09-24T11:59:43.000Z,98185
2022-09-24T12:01:09.000Z,98182
2022-09-24T12:03:15.000Z,98183
2022-09-24T12:04:42.000Z,98180
2022-09-24T12:06:48.000Z,98180
2022-09-24T12:08:15.000Z,98183
2022-09-24T12:10:21.000Z,98180
2022-09-24T12:11:47.000Z,98185
2022-09-24T12:13:53.000Z,98182
2022-09-24T12:15:20.000Z,98181
2022-09-24T12:17:26.000Z,98175
2022-09-24T12:18:52.000Z,98178
2022-09-24T12:20:59.000Z,98177
2022-09-24T12:22:25.000Z,98175
2022-09-24T12:24:31.000Z,98177
2022-09-24T12:25:58.000Z,98171
2022-09-24T12:28:04.000Z,98174
2022-09-24T12:29:30.000Z,98175
2022-09-24T12:31:37.000Z,98166
2022-09-24T12:34:28.000Z,98168
2022-09-24T12:35:54.000Z,98165
2022-09-24T12:38:01.000Z,98166
2022-09-24T12:39:27.000Z,98164
2022-09-24T12:41:33.000Z,98162
2022-09-24T12:43:00.000Z,98165
2022-09-24T12:45:06.000Z,98163
2022-09-24T12:46:32.000Z,98162
2022-09-24T12:48:38.000Z,98161
2022-09-24T12:50:05.000Z,98165
2022-09-24T12:52:11.000Z,98164
2022-09-24T12:53:38.000Z,98162
2022-09-24T12:55:44.000Z,98159
2022-09-24T12:57:10.000Z,98155
2022-09-24T12:59:17.000Z,98154
2022-09-24T13:00:43.000Z,98154
2022-09-24T13:02:49.000Z,98152
2022-09-24T13:04:16.000Z,98152
2022-09-24T13:06:22.000Z,98152
2022-09-24T13:07:49.000Z,98154
2022-09-24T13:09:55.000Z,98151
2022-09-24T13:12:46.000Z,98149
2022-09-24T13:14:13.000Z,98148
2022-09-24T13:16:19.000Z,98145
2022-09-24T13:17:46.000Z,98145
2022-09-24T13:19:52.000Z,98145
2022-09-24T13:21:19.000Z,98143
2022-09-24T13:23:25.000Z,98141
2022-09-24T13:24:51.000Z,98140
2022-09-24T13:26:57.000Z,98140
2022-09-24T13:28:24.000Z,98138
2022-09-24T13:30:30.000Z,98135
2022-09-24T13:31:56.000Z,98135
2022-09-24T13:34:02.000Z,98134
2022-09-24T13:35:29.000Z,98137
2022-09-24T13:37:35.000Z,98140
2022-09-24T13:39:02.000Z,98139
2022-09-24T13:41:08.000Z,98146
2022-09-24T13:42:34.000Z,98145
2022-09-24T13:44:41.000Z,98142
2022-09-24T13:46:07.000Z,98141
2022-09-24T13:48:13.000Z,98140
2022-09-24T13:51:05.000Z,98140
2022-09-24T13:52:31.000Z,98140
2022-09-24T13:54:37.000Z,98142
2022-09-24T13:56:04.000Z,98143
2022-09-24T13:58:10.000Z,98144
2022-09-24T13:59:36.000Z,98141
2022-09-24T14:01:42.000Z,98139
2022-09-24T14:03:09.000Z,98142
2022-09-24T14:05:15.000Z,98140
2022-09-24T14:06:42.000Z,98138
2022-09-24T14:08:48.000Z,98137
2022-09-24T14:10:14.000Z,98135
2022-09-24T14:12:21.000Z,98137
2022-09-24T14:13:47.000Z,98134
2022-09-24T14:15:53.000Z,98133
2022-09-24T14:17:20.000Z,98137
2022-09-24T14:19:26.000Z,98131
2022-09-24T14:20:53.000Z,98134
2022-09-24T14:22:59.000Z,98133
2022-09-24T14:24:25.000Z,98135
2022-09-24T14:26:31.000Z,98131
2022-09-24T14:29:22.000Z,98126
2022-09-24T14:30:49.000Z,98129
2022-09-24T14:32:55.000Z,98128
2022-09-24T14:34:22.000Z,98129
2022-09-24T14:36:28.000Z,98126
2022-09-24T14:37:54.000Z,98129
2022-09-24T14:40:00.000Z,98124
2022-09-24T14:41:29.000Z,98123
2022-09-24T14:43:35.000Z,98123
2022-09-24T14:45:01.000Z,98125
2022-09-24T14:47:08.000Z,98125
2022-09-24T14:48:34.000Z,98126
2022-09-24T14:50:40.000Z,98124
2022-09-24T14:52:07.000Z,98125
2022-09-24T14:54:13.000Z,98129
2022-09-24T14:55:39.000Z,98127
2022-09-24T14:57:45.000Z,98121
2022-09-24T14:59:15.000Z,98119
2022-09-24T15:01:22.000Z,98116
2022-09-24T15:02:48.000Z,98119
2022-09-24T15:04:54.000Z,98119
2022-09-24T15:07:45.000Z,98116
2022-09-24T15:09:12.000Z,98115
2022-09-24T15:11:18.000Z,98116
2022-09-24T15:12:45.000Z,98114
2022-09-24T15:14:51.000Z,98115
2022-09-24T15:16:17.000Z,98115
2022-09-24T15:18:24.000Z,98117
2022-09-24T15:19:50.000Z,98116
2022-09-24T15:21:56.000Z,98115
2022-09-24T15:23:23.000Z,98115
2022-09-24T15:25:29.000Z,98112
2022-09-24T15:26:55.000Z,98115
2022-09-24T15:29:02.000Z,98115
2022-09-24T15:30:28.000Z,98117
2022-09-24T15:32:34.000Z,98116
2022-09-24T15:34:01.000Z,98119
2022-09-24T15:36:07.000Z,98115
2022-09-24T15:37:33.000Z,98117
2022-09-24T15:39:39.000Z,98116
2022-09-24T15:41:06.000Z,98117
2022-09-24T15:43:12.000Z,98119
2022-09-24T15:46:03.000Z,98117
2022-09-24T15:47:30.000Z,98118
2022-09-24T15:49:36.000Z,98112
2022-09-24T15:51:02.000Z,98111
2022-09-24T15:53:15.000Z,98116
2022-09-24T15:54:41.000Z,98113
2022-09-24T15:56:47.000Z,98113
2022-09-24T15:58:14.000Z,98113
2022-09-24T16:00:25.000Z,98114
2022-09-24T16:01:51.000Z,98116
2022-09-24T16:03:57.000Z,98120
2022-09-24T16:05:24.000Z,98117
2022-09-24T16:07:30.000Z,98121
2022-09-24T16:08:57.000Z,98118
2022-09-24T16:11:03.000Z,98120
2022-09-24T16:12:35.000Z,98124
2022-09-24T16:14:41.000Z,98123
2022-09-24T16:16:07.000Z,98125
2022-09-24T16:18:14.000Z,98127
2022-09-24T16:19:40.000Z,98126
2022-09-24T16:21:46.000Z,98127
2022-09-24T16:24:37.000Z,98129
2022-09-24T16:26:04.000Z,98131
2022-09-24T16:28:10.000Z,98129
2022-09-24T16:29:37.000Z,98133
2022-09-24T16:31:43.000Z,98136
2022-09-24T16:33:09.000Z,98138
2022-09-24T16:35:15.000Z,98136
2022-09-24T16:36:42.000Z,98136
2022-09-24T16:38:48.000Z,98142
2022-09-24T16:40:14.000Z,98138
2022-09-24T16:42:20.000Z,98142
2022-09-24T16:43:47.000Z,98144
2022-09-24T16:45:53.000Z,98146
2022-09-24T16:47:20.000Z,98144
2022-09-24T16:49:26.000Z,98143
2022-09-24T16:50:52.000Z,98144
2022-09-24T16:52:58.000Z,98145
2022-09-24T16:54:25.000Z,98146
2022-09-24T16:56:31.000Z,98147
2022-09-24T16:57:58.000Z,98144
2022-09-24T17:00:04.000Z,98144
2022-09-24T17:02:55.000Z,98144
2022-09-24T17:04:22.000Z,98141
2022-09-24T17:06:28.000Z,98144
2022-09-24T17:07:55.000Z,98145
2022-09-24T17:10:01.000Z,98143
2022-09-24T17:11:27.000Z,98143
2022-09-24T17:13:33.000Z,98144
2022-09-24T17:15:00.000Z,98144
2022-09-24T17:17:06.000Z,98144
2022-09-24T17:18:33.000Z,98148
2022-09-24T17:20:39.000Z,98144
2022-09-24T17:22:05.000Z,98144
2022-09-24T17:24:11.000Z,98147
2022-09-24T17:25:38.000Z,98146
2022-09-24T17:27:44.000Z,98147
2022-09-24T17:29:10.000Z,98150
2022-09-24T17:31:16.000Z,98155
2022-09-24T17:32:43.000Z,98151
2022-09-24T17:34:49.000Z,98153
2022-09-24T17:36:16.000Z,98158
2022-09-24T17:38:22.000Z,98159
2022-09-24T17:41:13.000Z,98164
2022-09-24T17:42:40.000Z,98164
2022-09-24T17:44:46.000Z,98166
2022-09-24T17:46:12.000Z,98167
2022-09-24T17:48:20.000Z,98168
2022-09-24T17:49:47.000Z,98171
2022-09-24T17:51:53.000Z,98170
2022-09-24T17:53:19.000Z,98173
2022-09-24T17:55:26.000Z,98177
2022-09-24T17:56:52.000Z,98177
2022-09-24T17:58:58.000Z,98179
2022-09-24T18:00:25.000Z,98181
2022-09-24T18:02:31.000Z,98184
2022-09-24T18:03:57.000Z,98186
2022-09-24T18:06:03.000Z,98190
2022-09-24T18:07:30.000Z,98186
2022-09-24T18:09:36.000Z,98190
2022-09-24T18:11:02.000Z,98188
2022-09-24T18:13:09.000Z,98190
2022-09-24T18:14:35.000Z,98189
2022-09-24T18:16:41.000Z,98193
2022-09-24T18:19:32.000Z,98194
2022-09-24T18:20:59.000Z,98190
2022-09-24T18:23:05.000Z,98195
2022-09-24T18:24:31.000Z,98191
2022-09-24T18:26:38.000Z,98188
2022-09-24T18:28:04.000Z,98190
2022-09-24T18:30:10.000Z,98193
2022-09-24T18:31:37.000Z,98191
2022-09-24T18:33:43.000Z,98194
2022-09-24T18:35:09.000Z,98192
2022-09-24T18:37:15.000Z,98191
2022-09-24T18:38:42.000Z,98191
2022-09-24T18:40:48.000Z,98191
2022-09-24T18:42:14.000Z,98196
2022-09-24T18:44:21.000Z,98194
2022-09-24T18:45:47.000Z,98192
2022-09-24T18:47:53.000Z,98195
2022-09-24T18:49:20.000Z,98196
2022-09-24T18:51:26.000Z,98197
2022-09-24T18:52:52.000Z,98192
2022-09-24T18:54:58.000Z,98197
2022-09-24T18:57:50.000Z,98195
2022-09-24T18:59:16.000Z,98198
2022-09-24T19:01:24.000Z,98195
2022-09-24T19:02:50.000Z,98197
2022-09-24T19:04:57.000Z,98197
2022-09-24T19:06:23.000Z,98197
2022-09-24T19:08:29.000Z,98196
2022-09-24T19:09:56.000Z,98197
2022-09-24T19:12:02.000Z,98198
2022-09-24T19:13:28.000Z,98198
2022-09-24T19:15:35.000Z,98201
2022-09-24T19:17:01.000Z,98200
2022-09-24T19:19:07.000Z,98201
2022-09-24T19:20:34.000Z,98204
2022-09-24T19:22:40.000Z,98203
2022-09-24T19:24:06.000Z,98205
2022-09-24T19:26:13.000Z,98200
2022-09-24T19:27:39.000Z,98203
2022-09-24T19:29:45.000Z,98206
2022-09-24T19:31:12.000Z,98202
2022-09-24T19:33:18.000Z,98204
2022-09-24T19:36:10.000Z,98206
2022-09-24T19:37:36.000Z,98205
2022-09-24T19:39:42.000Z,98202
2022-09-24T19:41:09.000Z,98206
2022-09-24T19:43:15.000Z,98206
2022-09-24T19:44:41.000Z,98203
2022-09-24T19:46:47.000Z,98210
2022-09-24T19:48:14.000Z,98206
2022-09-24T19:50:20.000Z,98208
2022-09-24T19:51:46.000Z,98212
2022-09-24T19:53:53.000Z,98210
2022-09-24T19:55:19.000Z,98213
2022-09-24T19:57:30.000Z,98209
2022-09-24T19:58:57.000Z,98212
2022-09-24T20:01:03.000Z,98217
2022-09-24T20:02:30.000Z,98211
2022-09-24T20:04:36.000Z,98214
2022-09-24T20:06:02.000Z,98212
2022-09-24T20:08:08.000Z,98212
2022-09-24T20:09:35.000Z,98215
2022-09-24T20:11:41.000Z,98212
2022-09-24T20:14:32.000Z,98215
2022-09-24T20:16:00.000Z,98213
2022-09-24T20:18:06.000Z,98215
2022-09-24T20:19:33.000Z,98215
2022-09-24T20:21:39.000Z,98214
2022-09-24T20:23:05.000Z,98215
2022-09-24T20:25:11.000Z,98214
2022-09-24T20:26:38.000Z,98213
2022-09-24T20:28:44.000Z,98212
2022-09-24T20:30:11.000Z,98213
2022-09-24T20:32:17.000Z,98220
2022-09-24T20:33:43.000Z,98217
2022-09-24T20:35:49.000Z,98219
2022-09-24T20:37:16.000Z,98226
2022-09-24T20:39:22.000Z,98230
2022-09-24T20:40:48.000Z,98228
2022-09-24T20:42:55.000Z,98231
2022-09-24T20:44:21.000Z,98229
2022-09-24T20:46:27.000Z,98229
2022-09-24T20:47:54.000Z,98231
2022-09-24T20:50:00.000Z,98230
2022-09-24T20:52:51.000Z,98231
2022-09-24T20:54:18.000Z,98232
2022-09-24T20:56:24.000Z,98233
2022-09-24T20:57:50.000Z,98231
2022-09-24T20:59:57.000Z,98230
2022-09-24T21:01:23.000Z,98229
2022-09-24T21:05:05.000Z,98232
2022-09-24T21:07:12.000Z,98233
2022-09-24T21:08:38.000Z,98229
2022-09-24T21:10:44.000Z,98229
2022-09-24T21:12:11.000Z,98229
2022-09-24T21:14:17.000Z,98230
2022-09-24T21:15:44.000Z,98229
2022-09-24T21:17:50.000Z,98229
2022-09-24T21:19:45.000Z,98228
2022-09-24T21:23:23.000Z,98229
2022-09-24T21:25:17.000Z,98231
2022-09-24T21:27:18.000Z,98229
2022-09-24T21:29:24.000Z,98230
2022-09-24T21:30:51.000Z,98233
2022-09-24T21:32:57.000Z,98234
2022-09-24T21:34:24.000Z,98237
2022-09-24T21:36:30.000Z,98235
2022-09-24T21:37:56.000Z,98237
2022-09-24T21:40:02.000Z,98241
2022-09-24T21:41:29.000Z,98238
2022-09-24T21:43:35.000Z,98238
2022-09-24T21:45:02.000Z,98239
2022-09-24T21:47:08.000Z,98239
2022-09-24T21:48:34.000Z,98241
2022-09-24T21:50:40.000Z,98239
2022-09-24T21:52:07.000Z,98236
2022-09-24T21:54:13.000Z,98241
2022-09-24T21:55:39.000Z,98246
2022-09-24T21:57:46.000Z,98248
2022-09-24T21:59:12.000Z,98257
2022-09-24T22:01:18.000Z,98259
2022-09-24T22:04:09.000Z,98265
2022-09-24T22:05:36.000Z,98268
2022-09-24T22:07:42.000Z,98266
2022-09-24T22:09:09.000Z,98267
2022-09-24T22:11:15.000Z,98263
2022-09-24T22:12:41.000Z,98261
2022-09-24T22:14:48.000Z,98260
2022-09-24T22:16:14.000Z,98263
2022-09-24T22:18:20.000Z,98263
2022-09-24T22:19:47.000Z,98257
2022-09-24T22:21:53.000Z,98261
2022-09-24T22:23:19.000Z,98261
2022-09-24T22:25:25.000Z,98265
2022-09-24T22:26:52.000Z,98265
2022-09-24T22:28:58.000Z,98262
2022-09-24T22:30:24.000Z,98266
2022-09-24T22:32:31.000Z,98260
2022-09-24T22:33:57.000Z,98263
2022-09-24T22:36:03.000Z,98263
2022-09-24T22:37:30.000Z,98264
2022-09-24T22:39:36.000Z,98265
2022-09-24T22:42:27.000Z,98266
2022-09-24T22:43:54.000Z,98260
2022-09-24T22:46:00.000Z,98260
2022-09-24T22:47:26.000Z,98260
2022-09-24T22:49:33.000Z,98258
2022-09-24T22:50:59.000Z,98260
2022-09-24T22:53:05.000Z,98257
2022-09-24T22:54:32.000Z,98259
2022-09-24T22:56:38.000Z,98260
2022-09-24T22:58:04.000Z,98259
2022-09-24T23:00:10.000Z,98261
2022-09-24T23:01:37.000Z,98261
2022-09-24T23:03:43.000Z,98263
2022-09-24T23:05:10.000Z,98263
2022-09-24T23:07:16.000Z,98262
2022-09-24T23:08:43.000Z,98256
2022-09-24T23:10:49.000Z,98252
2022-09-24T23:12:15.000Z,98250
2022-09-24T23:14:22.000Z,98253
2022-09-24T23:15:48.000Z,98247
2022-09-24T23:17:54.000Z,98243
2022-09-24T23:20:45.000Z,98240
2022-09-24T23:22:12.000Z,98241
2022-09-24T23:24:18.000Z,98240
2022-09-24T23:25:44.000Z,98238
2022-09-24T23:27:51.000Z,98235
2022-09-24T23:29:17.000Z,98239
2022-09-24T23:31:23.000Z,98234
2022-09-24T23:32:50.000Z,98237
2022-09-24T23:34:56.000Z,98235